createdAt,value
2022-11-08T00:01:43.712Z,28.20
2022-11-08T00:04:50.109Z,31.10
2022-11-08T00:08:13.806Z,34.57
2022-11-08T00:11:37.804Z,27.03
2022-11-08T00:14:44.282Z,24.47
2022-11-08T00:17:51.946Z,29.57
2022-11-08T00:21:02.847Z,21.37
2022-11-08T00:24:08.981Z,25.63
2022-11-08T00:27:16.510Z,21.37
2022-11-08T00:30:22.819Z,23.80
2022-11-08T00:33:31.601Z,19.17
2022-11-08T00:36:37.959Z,25.93
2022-11-08T00:39:44.551Z,22.20
2022-11-08T00:42:51.106Z,18.63
2022-11-08T00:45:57.173Z,23.97
2022-11-08T00:49:05.080Z,21.00
2022-11-08T00:52:11.274Z,21.80
2022-11-08T00:55:17.529Z,24.27
2022-11-08T00:58:27.513Z,23.93
2022-11-08T01:01:34.575Z,27.27
2022-11-08T01:04:42.127Z,19.90
2022-11-08T01:07:48.410Z,32.80
2022-11-08T01:10:54.458Z,32.57
2022-11-08T01:14:01.952Z,24.07
2022-11-08T01:17:07.870Z,26.20
2022-11-08T01:20:15.413Z,34.20
2022-11-08T01:23:21.774Z,22.80
2022-11-08T01:26:29.581Z,24.77
2022-11-08T01:29:36.116Z,24.47
2022-11-08T01:32:42.306Z,28.73
2022-11-08T01:35:49.673Z,24.03
2022-11-08T01:38:57.042Z,29.13
2022-11-08T01:42:03.237Z,19.53
2022-11-08T01:45:11.810Z,24.17
2022-11-08T01:48:18.314Z,21.30
2022-11-08T01:51:30.173Z,27.63
2022-11-08T01:54:45.089Z,17.80
2022-11-08T01:57:56.244Z,16.67
2022-11-08T02:01:03.632Z,22.20
2022-11-08T02:04:09.866Z,19.40
2022-11-08T02:07:18.448Z,18.30
2022-11-08T02:10:27.973Z,15.10
2022-11-08T02:13:35.771Z,18.23
2022-11-08T02:16:41.556Z,19.07
2022-11-08T02:19:50.962Z,16.87
2022-11-08T02:23:06.234Z,16.13
2022-11-08T02:26:14.247Z,12.67
2022-11-08T02:29:25.878Z,14.90
2022-11-08T02:32:39.314Z,13.63
2022-11-08T02:35:48.091Z,15.37
2022-11-08T02:38:56.456Z,14.30
2022-11-08T02:42:04.507Z,13.10
2022-11-08T02:45:11.238Z,13.10
2022-11-08T02:48:18.204Z,18.33
2022-11-08T02:51:24.614Z,16.97
2022-11-08T02:54:30.682Z,34.20
2022-11-08T02:57:44.338Z,14.50
2022-11-08T03:00:51.545Z,18.77
2022-11-08T03:04:00.605Z,15.23
2022-11-08T03:07:07.211Z,18.37
2022-11-08T03:10:13.853Z,12.20
2022-11-08T03:13:21.616Z,15.27
2022-11-08T03:16:27.969Z,14.37
2022-11-08T03:19:34.389Z,16.37
2022-11-08T03:22:40.707Z,13.57
2022-11-08T03:25:47.030Z,19.60
2022-11-08T03:28:54.476Z,20.13
2022-11-08T03:32:00.806Z,12.80
2022-11-08T03:35:07.667Z,13.33
2022-11-08T03:38:13.428Z,13.77
2022-11-08T03:41:19.634Z,14.30
2022-11-08T03:44:27.055Z,11.40
2022-11-08T03:47:33.059Z,18.23
2022-11-08T03:50:39.190Z,17.97
2022-11-08T03:53:45.381Z,13.23
2022-11-08T03:56:51.651Z,15.37
2022-11-08T03:59:59.238Z,13.07
2022-11-08T04:03:06.135Z,16.40
2022-11-08T04:06:12.290Z,18.20
2022-11-08T04:09:21.490Z,16.00
2022-11-08T04:12:45.692Z,20.20
2022-11-08T04:15:57.126Z,15.87
2022-11-08T04:19:20.965Z,15.87
2022-11-08T04:22:27.080Z,19.67
2022-11-08T04:25:35.235Z,17.90
2022-11-08T04:28:42.622Z,19.50
2022-11-08T04:31:50.148Z,26.67
2022-11-08T04:34:55.998Z,47.10
2022-11-08T04:38:03.163Z,31.83
2022-11-08T04:41:11.948Z,22.63
2022-11-08T04:44:18.575Z,24.00
2022-11-08T04:47:25.866Z,22.80
2022-11-08T04:50:32.160Z,22.20
2022-11-08T04:53:38.413Z,30.50
2022-11-08T04:56:44.542Z,21.00
2022-11-08T04:59:52.036Z,28.90
2022-11-08T05:03:02.755Z,30.03
2022-11-08T05:06:13.361Z,50.23
2022-11-08T05:09:19.433Z,71.23
2022-11-08T05:12:25.545Z,30.17
2022-11-08T05:15:31.588Z,15.83
2022-11-08T05:18:41.728Z,16.87
2022-11-08T05:22:05.954Z,26.50
2022-11-08T05:25:11.870Z,35.87
2022-11-08T05:28:18.929Z,36.60
2022-11-08T05:31:25.320Z,59.13
2022-11-08T05:34:33.016Z,26.20
2022-11-08T05:37:43.138Z,32.47
2022-11-08T05:40:49.463Z,34.77
2022-11-08T05:43:56.732Z,21.97
2022-11-08T05:47:03.025Z,19.50
2022-11-08T05:50:12.407Z,31.73
2022-11-08T05:53:21.988Z,31.47
2022-11-08T05:56:27.898Z,42.57
2022-11-08T05:59:34.058Z,32.57
2022-11-08T06:02:40.383Z,46.60
2022-11-08T06:05:47.836Z,72.83
2022-11-08T06:08:54.767Z,40.57
2022-11-08T06:12:01.019Z,49.07
2022-11-08T06:15:09.418Z,39.13
2022-11-08T06:18:15.603Z,33.43
2022-11-08T06:21:23.631Z,27.37
2022-11-08T06:24:29.780Z,29.50
2022-11-08T06:27:36.663Z,27.60
2022-11-08T06:30:43.179Z,27.17
2022-11-08T06:33:50.431Z,26.50
2022-11-08T06:37:00.388Z,24.23
2022-11-08T06:40:07.442Z,21.73
2022-11-08T06:43:19.357Z,71.00
2022-11-08T06:46:26.300Z,32.67
2022-11-08T06:49:32.670Z,31.70
2022-11-08T06:52:40.957Z,36.10
2022-11-08T06:55:47.458Z,27.60
2022-11-08T06:58:53.532Z,32.77
2022-11-08T07:01:59.917Z,28.37
2022-11-08T07:05:06.857Z,32.00
2022-11-08T07:08:15.379Z,34.13
2022-11-08T07:11:23.296Z,41.23
2022-11-08T07:14:29.736Z,41.33
2022-11-08T07:17:38.685Z,39.87
2022-11-08T07:20:45.426Z,42.03
2022-11-08T07:23:53.136Z,26.63
2022-11-08T07:26:59.679Z,33.03
2022-11-08T07:30:07.137Z,38.00
2022-11-08T07:33:13.618Z,40.33
2022-11-08T07:36:20.058Z,38.50
2022-11-08T07:39:27.595Z,33.23
2022-11-08T07:43:04.772Z,32.80
2022-11-08T07:46:04.120Z,34.40
2022-11-08T07:49:10.605Z,33.50
2022-11-08T07:52:16.613Z,19.67
2022-11-08T07:55:24.566Z,27.37
2022-11-08T07:58:30.815Z,27.33
2022-11-08T08:01:37.529Z,21.17
2022-11-08T08:04:44.512Z,24.57
2022-11-08T08:07:50.920Z,27.00
2022-11-08T08:11:00.515Z,31.30
2022-11-08T08:14:06.859Z,28.27
2022-11-08T08:17:12.977Z,26.70
2022-11-08T08:20:19.471Z,20.07
2022-11-08T08:23:25.858Z,16.03
2022-11-08T08:26:33.702Z,18.60
2022-11-08T08:29:39.856Z,22.93
2022-11-08T08:32:47.929Z,28.77
2022-11-08T08:36:01.965Z,15.43
2022-11-08T08:39:08.837Z,19.10
2022-11-08T08:42:16.831Z,13.97
2022-11-08T08:45:23.321Z,13.10
2022-11-08T08:48:29.601Z,13.63
2022-11-08T08:51:35.936Z,13.63
2022-11-08T08:54:42.065Z,15.83
2022-11-08T08:57:50.321Z,13.77
2022-11-08T09:04:28.263Z,12.47
2022-11-08T09:07:34.985Z,13.37
2022-11-08T09:10:41.829Z,16.03
2022-11-08T09:13:49.590Z,18.13
2022-11-08T09:16:55.910Z,13.97
2022-11-08T09:20:02.046Z,14.57
2022-11-08T09:23:08.134Z,15.70
2022-11-08T09:26:14.444Z,16.37
2022-11-08T09:29:22.538Z,15.10
2022-11-08T09:32:54.099Z,18.00
2022-11-08T09:35:55.117Z,13.50
2022-11-08T09:39:01.228Z,18.60
2022-11-08T09:42:31.071Z,12.80
2022-11-08T09:45:44.657Z,14.67
2022-11-08T09:48:52.322Z,13.90
2022-11-08T09:51:59.710Z,13.93
2022-11-08T09:55:19.146Z,12.23
2022-11-08T09:58:35.626Z,13.77
2022-11-08T10:01:43.251Z,17.77
2022-11-08T10:04:56.249Z,14.83
2022-11-08T10:08:09.075Z,16.03
2022-11-08T10:11:26.493Z,14.77
2022-11-08T10:14:49.192Z,15.60
2022-11-08T10:18:22.358Z,10.03
2022-11-08T10:21:54.747Z,12.50
2022-11-08T10:25:03.144Z,14.77
2022-11-08T10:28:09.762Z,14.60
2022-11-08T10:31:16.517Z,12.83
2022-11-08T10:34:29.296Z,13.90
2022-11-08T10:37:35.624Z,15.77
2022-11-08T10:40:46.922Z,14.50
2022-11-08T10:43:59.065Z,12.17
2022-11-08T10:47:08.886Z,14.27
2022-11-08T10:50:20.974Z,12.93
2022-11-08T10:53:28.710Z,16.70
2022-11-08T10:56:56.326Z,11.80
2022-11-08T11:00:25.578Z,12.77
2022-11-08T11:03:31.789Z,11.50
2022-11-08T11:06:39.226Z,19.87
2022-11-08T11:09:45.330Z,13.67
2022-11-08T11:12:52.862Z,11.57
2022-11-08T11:16:03.458Z,11.73
2022-11-08T11:19:16.366Z,13.00
2022-11-08T11:22:30.404Z,8.73
2022-11-08T11:25:36.567Z,15.73
2022-11-08T11:29:15.999Z,13.17
2022-11-08T11:32:25.661Z,14.63
2022-11-08T11:35:45.279Z,12.47
2022-11-08T11:39:01.937Z,10.17
2022-11-08T11:42:43.848Z,11.03
2022-11-08T11:45:48.665Z,15.23
2022-11-08T11:49:02.100Z,8.43
2022-11-08T11:52:17.669Z,9.83
2022-11-08T11:55:31.070Z,13.67
2022-11-08T11:58:54.167Z,9.40
2022-11-08T12:02:23.352Z,8.63
2022-11-08T12:05:37.303Z,12.50
2022-11-08T12:09:05.311Z,8.67
2022-11-08T12:12:26.529Z,7.27
2022-11-08T12:15:39.184Z,12.57
2022-11-08T12:19:01.643Z,10.47
2022-11-08T12:22:33.555Z,10.03
2022-11-08T12:25:48.287Z,13.10
2022-11-08T12:29:20.083Z,11.37
2022-11-08T12:32:47.170Z,7.83
2022-11-08T12:36:04.625Z,11.50
2022-11-08T12:39:24.042Z,9.73
2022-11-08T12:42:51.621Z,15.13
2022-11-08T12:46:08.733Z,15.30
2022-11-08T12:49:28.910Z,41.37
2022-11-08T12:52:49.375Z,21.60
2022-11-08T12:56:00.335Z,19.73
2022-11-08T12:59:19.699Z,18.60
2022-11-08T13:02:31.552Z,14.20
2022-11-08T13:05:41.443Z,16.80
2022-11-08T13:08:54.013Z,12.83
2022-11-08T13:12:08.400Z,13.70
2022-11-08T13:15:20.827Z,15.83
2022-11-08T13:18:36.267Z,20.80
2022-11-08T13:21:43.254Z,13.33
2022-11-08T13:24:49.557Z,13.63
2022-11-08T13:27:56.514Z,12.17
2022-11-08T13:31:13.285Z,11.40
2022-11-08T13:34:46.157Z,10.40
2022-11-08T13:38:04.277Z,8.53
2022-11-08T13:41:17.688Z,7.60
2022-11-08T13:45:13.595Z,10.37
2022-11-08T13:48:37.803Z,8.90
2022-11-08T13:51:46.229Z,13.47
2022-11-08T13:54:55.272Z,17.10
2022-11-08T13:58:02.667Z,12.00
2022-11-08T14:01:10.393Z,9.87
2022-11-08T14:04:26.605Z,7.83
2022-11-08T14:07:42.097Z,8.50
2022-11-08T14:11:27.180Z,21.10
2022-11-08T14:14:44.508Z,16.30
2022-11-08T14:17:56.766Z,15.20
2022-11-08T14:21:05.148Z,22.97
2022-11-08T14:24:20.148Z,32.97
2022-11-08T14:27:38.970Z,11.67
2022-11-08T14:30:50.769Z,17.73
2022-11-08T14:33:57.866Z,28.93
2022-11-08T14:37:05.732Z,26.40
2022-11-08T14:40:24.743Z,19.20
2022-11-08T14:43:31.324Z,24.40
2022-11-08T14:46:40.934Z,30.60
2022-11-08T14:49:49.322Z,29.37
2022-11-08T14:52:55.616Z,29.77
2022-11-08T14:56:16.809Z,33.13
2022-11-08T14:59:24.910Z,33.33
2022-11-08T15:02:32.040Z,33.37
2022-11-08T15:05:42.379Z,27.47
2022-11-08T15:08:52.109Z,113.47
2022-11-08T15:12:01.663Z,35.60
2022-11-08T15:15:19.603Z,13.57
2022-11-08T15:18:33.341Z,15.70
2022-11-08T15:21:49.433Z,16.63
2022-11-08T15:25:19.579Z,17.77
2022-11-08T15:28:33.868Z,17.47
2022-11-08T15:31:44.733Z,29.03
2022-11-08T15:34:57.742Z,32.53
2022-11-08T15:38:05.967Z,53.37
2022-11-08T15:41:39.153Z,17.73
2022-11-08T15:45:06.098Z,13.07
2022-11-08T15:48:21.194Z,15.03
2022-11-08T15:51:27.343Z,15.10
2022-11-08T15:54:33.580Z,27.23
2022-11-08T15:57:43.045Z,45.70
2022-11-08T16:00:51.294Z,93.13
2022-11-08T16:03:57.477Z,71.77
2022-11-08T16:07:03.870Z,59.57
2022-11-08T16:10:11.979Z,57.10
2022-11-08T16:13:20.938Z,150.47
2022-11-08T16:16:33.985Z,183.60
2022-11-08T16:19:41.345Z,212.17
2022-11-08T16:22:47.239Z,98.17
2022-11-08T16:25:56.005Z,43.43
2022-11-08T16:29:02.012Z,32.13
2022-11-08T16:32:11.713Z,43.77
2022-11-08T16:35:18.735Z,43.47
2022-11-08T16:38:27.554Z,55.53
2022-11-08T16:41:33.340Z,61.27
2022-11-08T16:44:40.861Z,56.07
2022-11-08T16:47:51.010Z,45.07
2022-11-08T16:51:01.391Z,46.63
2022-11-08T16:54:18.691Z,39.07
2022-11-08T16:57:40.357Z,42.43
2022-11-08T17:00:47.000Z,47.80
2022-11-08T17:03:54.596Z,59.47
2022-11-08T17:07:00.523Z,90.80
2022-11-08T17:10:07.813Z,98.43
2022-11-08T17:13:15.455Z,81.93
2022-11-08T17:16:21.817Z,67.77
2022-11-08T17:19:29.248Z,124.97
2022-11-08T17:22:35.605Z,76.37
2022-11-08T17:25:44.576Z,76.77
2022-11-08T17:28:51.043Z,58.20
2022-11-08T17:31:57.130Z,85.47
2022-11-08T17:35:06.154Z,88.77
2022-11-08T17:38:12.444Z,75.97
2022-11-08T17:41:19.058Z,68.13
2022-11-08T17:44:26.239Z,83.13
2022-11-08T17:47:32.448Z,80.77
2022-11-08T17:50:40.089Z,61.70
2022-11-08T17:53:46.318Z,102.57
2022-11-08T17:56:52.486Z,63.90
2022-11-08T17:59:59.022Z,40.20
2022-11-08T18:03:08.853Z,36.20
2022-11-08T18:06:19.274Z,36.67
2022-11-08T18:09:26.433Z,42.20
2022-11-08T18:12:32.717Z,51.77
2022-11-08T18:15:38.969Z,43.47
2022-11-08T18:18:46.455Z,65.13
2022-11-08T18:21:53.889Z,106.43
2022-11-08T18:25:00.554Z,96.63
2022-11-08T18:28:07.491Z,94.57
2022-11-08T18:31:16.223Z,82.97
2022-11-08T18:34:22.601Z,99.73
2022-11-08T18:37:30.050Z,42.07
2022-11-08T18:40:36.484Z,54.23
2022-11-08T18:43:43.118Z,50.63
2022-11-08T18:46:49.335Z,49.90
2022-11-08T18:49:59.558Z,47.63
2022-11-08T18:53:09.442Z,56.63
2022-11-08T18:56:16.363Z,68.53
2022-11-08T18:59:22.357Z,56.07
2022-11-08T19:02:28.739Z,59.30
2022-11-08T19:05:35.038Z,97.13
2022-11-08T19:08:42.478Z,87.43
2022-11-08T19:11:49.413Z,63.03
2022-11-08T19:14:55.573Z,41.63
2022-11-08T19:18:01.450Z,52.67
2022-11-08T19:21:10.036Z,58.30
2022-11-08T19:24:19.301Z,68.50
2022-11-08T19:27:25.669Z,108.17
2022-11-08T19:30:31.748Z,81.50
2022-11-08T19:33:38.090Z,66.93
2022-11-08T19:36:44.480Z,61.60
2022-11-08T19:39:52.034Z,132.83
2022-11-08T19:42:58.328Z,271.00
2022-11-08T19:46:06.116Z,215.33
2022-11-08T19:49:12.207Z,124.40
2022-11-08T19:52:18.081Z,123.43
2022-11-08T19:55:25.554Z,82.37
2022-11-08T19:58:33.070Z,63.43
2022-11-08T20:01:40.290Z,33.67
2022-11-08T20:04:47.051Z,56.03
2022-11-08T20:07:53.146Z,69.63
2022-11-08T20:11:00.931Z,33.03
2022-11-08T20:14:08.336Z,22.27
2022-11-08T20:17:14.206Z,18.83
2022-11-08T20:20:20.469Z,38.70
2022-11-08T20:23:27.265Z,30.70
2022-11-08T20:26:37.514Z,22.83
2022-11-08T20:29:43.759Z,26.97
2022-11-08T20:32:49.862Z,26.30
2022-11-08T20:35:56.205Z,31.67
2022-11-08T20:39:06.646Z,35.63
2022-11-08T20:42:18.503Z,20.93
2022-11-08T20:45:24.710Z,25.97
2022-11-08T20:48:31.390Z,22.67
2022-11-08T20:51:37.936Z,32.80
2022-11-08T20:54:45.220Z,24.30
2022-11-08T20:57:52.766Z,24.13
2022-11-08T21:01:00.189Z,79.03
2022-11-08T21:04:06.378Z,65.00
2022-11-08T21:08:01.503Z,37.90
2022-11-08T21:10:43.566Z,31.93
2022-11-08T21:13:51.511Z,25.37
2022-11-08T21:17:20.879Z,25.07
2022-11-08T21:20:23.206Z,16.37
2022-11-08T21:23:29.379Z,24.67
2022-11-08T21:26:36.935Z,20.33
2022-11-08T21:29:44.469Z,23.60
2022-11-08T21:32:50.806Z,23.40
2022-11-08T21:35:57.731Z,23.77
2022-11-08T21:39:03.877Z,19.53
2022-11-08T21:42:09.992Z,18.40
2022-11-08T21:45:17.842Z,19.57
2022-11-08T21:48:23.930Z,19.20
2022-11-08T21:51:31.425Z,22.20
2022-11-08T21:54:37.950Z,24.37
2022-11-08T21:57:44.169Z,29.40
2022-11-08T22:00:53.086Z,44.53
2022-11-08T22:04:00.072Z,21.57
2022-11-08T22:07:06.714Z,25.20
2022-11-08T22:10:13.085Z,35.80
2022-11-08T22:13:19.241Z,37.10
2022-11-08T22:16:26.626Z,32.50
2022-11-08T22:19:32.933Z,29.27
2022-11-08T22:22:38.880Z,20.17
2022-11-08T22:25:44.714Z,19.67
2022-11-08T22:28:50.721Z,25.47
2022-11-08T22:31:58.094Z,17.97
2022-11-08T22:35:22.961Z,19.17
2022-11-08T22:38:28.980Z,20.37
2022-11-08T22:41:35.021Z,25.07
2022-11-08T22:44:41.119Z,17.33
2022-11-08T22:47:48.610Z,17.07
2022-11-08T22:50:55.227Z,21.03
2022-11-08T22:54:01.864Z,24.70
2022-11-08T22:57:08.070Z,24.67
2022-11-08T23:00:15.682Z,15.90
2022-11-08T23:03:24.097Z,13.70
2022-11-08T23:06:30.845Z,22.03
2022-11-08T23:09:37.314Z,16.30
2022-11-08T23:13:01.010Z,18.63
2022-11-08T23:16:24.639Z,13.13
2022-11-08T23:19:49.546Z,15.20
2022-11-08T23:23:13.266Z,16.30
2022-11-08T23:26:40.039Z,15.57
2022-11-08T23:30:03.634Z,15.10
2022-11-08T23:33:09.684Z,24.77
2022-11-08T23:36:17.442Z,21.03
2022-11-08T23:39:23.798Z,32.60
2022-11-08T23:42:46.724Z,20.57
2022-11-08T23:45:53.126Z,12.77
2022-11-08T23:48:59.500Z,16.17
2022-11-08T23:52:07.251Z,12.97
2022-11-08T23:55:13.627Z,10.40
2022-11-08T23:58:20.713Z,11.60
